sensor_id;sensor_type;location;lat;lon;timestamp;P1;durP1;ratioP1;P2;durP2;ratioP2
4595;SDS011;2310;49.978;8.742;2023-08-20T00:03:06;10.10;;;8.83;;
4595;SDS011;2310;49.978;8.742;2023-08-20T00:07:05;8.87;;;7.97;;
4595;SDS011;2310;49.978;8.742;2023-08-20T00:11:08;8.83;;;7.93;;
4595;SDS011;2310;49.978;8.742;2023-08-20T00:15:10;9.40;;;8.40;;
4595;SDS011;2310;49.978;8.742;2023-08-20T00:19:12;9.20;;;8.30;;
4595;SDS011;2310;49.978;8.742;2023-08-20T00:23:14;8.90;;;7.60;;
4595;SDS011;2310;49.978;8.742;2023-08-20T00:27:16;8.90;;;8.07;;
4595;SDS011;2310;49.978;8.742;2023-08-20T00:31:17;9.60;;;8.60;;
4595;SDS011;2310;49.978;8.742;2023-08-20T00:35:19;9.47;;;7.63;;
4595;SDS011;2310;49.978;8.742;2023-08-20T00:39:20;9.40;;;8.40;;
4595;SDS011;2310;49.978;8.742;2023-08-20T00:43:21;9.07;;;8.13;;
4595;SDS011;2310;49.978;8.742;2023-08-20T00:47:23;10.03;;;9.03;;
4595;SDS011;2310;49.978;8.742;2023-08-20T00:51:24;9.23;;;8.07;;
4595;SDS011;2310;49.978;8.742;2023-08-20T00:55:26;10.13;;;8.97;;
4595;SDS011;2310;49.978;8.742;2023-08-20T00:59:28;9.50;;;8.07;;
4595;SDS011;2310;49.978;8.742;2023-08-20T01:03:31;12.90;;;9.07;;
4595;SDS011;2310;49.978;8.742;2023-08-20T01:12:09;12.03;;;8.17;;
4595;SDS011;2310;49.978;8.742;2023-08-20T01:16:11;11.07;;;9.30;;
4595;SDS011;2310;49.978;8.742;2023-08-20T01:20:12;10.77;;;9.77;;
4595;SDS011;2310;49.978;8.742;2023-08-20T01:28:36;11.37;;;8.73;;
4595;SDS011;2310;49.978;8.742;2023-08-20T01:32:39;8.90;;;8.00;;
4595;SDS011;2310;49.978;8.742;2023-08-20T01:36:43;13.20;;;9.43;;
4595;SDS011;2310;49.978;8.742;2023-08-20T01:40:44;9.50;;;8.50;;
4595;SDS011;2310;49.978;8.742;2023-08-20T01:44:45;11.70;;;9.40;;
4595;SDS011;2310;49.978;8.742;2023-08-20T01:48:47;9.93;;;8.93;;
4595;SDS011;2310;49.978;8.742;2023-08-20T01:52:48;14.00;;;9.67;;
4595;SDS011;2310;49.978;8.742;2023-08-20T01:56:49;10.87;;;9.70;;
4595;SDS011;2310;49.978;8.742;2023-08-20T02:00:51;10.10;;;8.50;;
4595;SDS011;2310;49.978;8.742;2023-08-20T02:04:53;13.13;;;9.03;;
4595;SDS011;2310;49.978;8.742;2023-08-20T02:08:54;12.80;;;9.27;;
4595;SDS011;2310;49.978;8.742;2023-08-20T02:12:55;10.27;;;8.50;;
4595;SDS011;2310;49.978;8.742;2023-08-20T02:16:57;11.83;;;9.13;;
4595;SDS011;2310;49.978;8.742;2023-08-20T02:20:58;9.73;;;8.73;;
4595;SDS011;2310;49.978;8.742;2023-08-20T02:25:00;10.60;;;9.50;;
4595;SDS011;2310;49.978;8.742;2023-08-20T02:29:01;10.93;;;9.83;;
4595;SDS011;2310;49.978;8.742;2023-08-20T02:33:03;13.03;;;9.63;;
4595;SDS011;2310;49.978;8.742;2023-08-20T02:37:05;11.40;;;10.40;;
4595;SDS011;2310;49.978;8.742;2023-08-20T02:41:06;10.07;;;9.00;;
4595;SDS011;2310;49.978;8.742;2023-08-20T02:45:08;11.00;;;9.90;;
4595;SDS011;2310;49.978;8.742;2023-08-20T02:49:09;11.03;;;9.90;;
4595;SDS011;2310;49.978;8.742;2023-08-20T02:53:11;15.67;;;10.97;;
4595;SDS011;2310;49.978;8.742;2023-08-20T02:57:12;10.90;;;9.83;;
4595;SDS011;2310;49.978;8.742;2023-08-20T03:01:17;11.17;;;10.10;;
4595;SDS011;2310;49.978;8.742;2023-08-20T03:05:20;12.20;;;11.10;;
4595;SDS011;2310;49.978;8.742;2023-08-20T03:09:22;12.43;;;11.23;;
4595;SDS011;2310;49.978;8.742;2023-08-20T03:13:23;12.70;;;11.40;;
4595;SDS011;2310;49.978;8.742;2023-08-20T03:17:25;12.43;;;11.23;;
4595;SDS011;2310;49.978;8.742;2023-08-20T03:21:26;13.73;;;12.40;;
4595;SDS011;2310;49.978;8.742;2023-08-20T03:25:27;14.00;;;11.30;;
4595;SDS011;2310;49.978;8.742;2023-08-20T03:29:29;14.20;;;11.80;;
4595;SDS011;2310;49.978;8.742;2023-08-20T03:33:30;14.83;;;11.73;;
4595;SDS011;2310;49.978;8.742;2023-08-20T03:37:32;12.37;;;11.07;;
4595;SDS011;2310;49.978;8.742;2023-08-20T03:41:33;12.67;;;11.27;;
4595;SDS011;2310;49.978;8.742;2023-08-20T03:45:35;12.93;;;11.60;;
4595;SDS011;2310;49.978;8.742;2023-08-20T03:49:36;13.57;;;12.37;;
4595;SDS011;2310;49.978;8.742;2023-08-20T03:53:38;13.70;;;11.00;;
4595;SDS011;2310;49.978;8.742;2023-08-20T03:57:40;11.67;;;10.53;;
4595;SDS011;2310;49.978;8.742;2023-08-20T04:01:41;11.37;;;10.17;;
4595;SDS011;2310;49.978;8.742;2023-08-20T04:05:42;12.13;;;10.93;;
4595;SDS011;2310;49.978;8.742;2023-08-20T04:09:44;12.97;;;11.60;;
4595;SDS011;2310;49.978;8.742;2023-08-20T04:13:45;12.60;;;11.30;;
4595;SDS011;2310;49.978;8.742;2023-08-20T04:17:46;12.70;;;11.40;;
4595;SDS011;2310;49.978;8.742;2023-08-20T04:21:48;11.33;;;10.33;;
4595;SDS011;2310;49.978;8.742;2023-08-20T04:25:49;13.73;;;12.40;;
4595;SDS011;2310;49.978;8.742;2023-08-20T04:29:50;12.30;;;11.00;;
4595;SDS011;2310;49.978;8.742;2023-08-20T04:33:52;10.60;;;9.60;;
4595;SDS011;2310;49.978;8.742;2023-08-20T04:37:53;11.60;;;10.50;;
4595;SDS011;2310;49.978;8.742;2023-08-20T04:41:54;12.63;;;11.43;;
4595;SDS011;2310;49.978;8.742;2023-08-20T04:45:58;13.47;;;12.07;;
4595;SDS011;2310;49.978;8.742;2023-08-20T04:51:15;13.33;;;12.13;;
4595;SDS011;2310;49.978;8.742;2023-08-20T04:55:16;13.90;;;12.50;;
4595;SDS011;2310;49.978;8.742;2023-08-20T04:59:18;14.50;;;11.83;;
4595;SDS011;2310;49.978;8.742;2023-08-20T05:03:19;13.10;;;12.00;;
4595;SDS011;2310;49.978;8.742;2023-08-20T05:07:20;16.87;;;13.40;;
4595;SDS011;2310;49.978;8.742;2023-08-20T05:11:22;13.50;;;12.03;;
4595;SDS011;2310;49.978;8.742;2023-08-20T05:15:23;11.60;;;10.60;;
4595;SDS011;2310;49.978;8.742;2023-08-20T05:19:24;11.80;;;10.70;;
4595;SDS011;2310;49.978;8.742;2023-08-20T05:23:26;14.47;;;12.17;;
4595;SDS011;2310;49.978;8.742;2023-08-20T05:27:27;11.70;;;10.60;;
4595;SDS011;2310;49.978;8.742;2023-08-20T05:31:28;12.60;;;11.40;;
4595;SDS011;2310;49.978;8.742;2023-08-20T05:35:30;12.33;;;11.13;;
4595;SDS011;2310;49.978;8.742;2023-08-20T05:39:36;15.17;;;11.37;;
4595;SDS011;2310;49.978;8.742;2023-08-20T05:43:39;10.63;;;9.63;;
4595;SDS011;2310;49.978;8.742;2023-08-20T05:47:40;12.10;;;11.00;;
4595;SDS011;2310;49.978;8.742;2023-08-20T05:51:42;12.33;;;11.30;;
4595;SDS011;2310;49.978;8.742;2023-08-20T05:55:44;12.20;;;11.00;;
4595;SDS011;2310;49.978;8.742;2023-08-20T05:59:46;13.07;;;10.43;;
4595;SDS011;2310;49.978;8.742;2023-08-20T06:03:48;12.30;;;11.20;;
4595;SDS011;2310;49.978;8.742;2023-08-20T06:07:49;11.87;;;10.63;;
4595;SDS011;2310;49.978;8.742;2023-08-20T06:11:50;12.30;;;11.20;;
4595;SDS011;2310;49.978;8.742;2023-08-20T06:15:52;13.07;;;11.80;;
4595;SDS011;2310;49.978;8.742;2023-08-20T06:19:54;15.00;;;12.40;;
4595;SDS011;2310;49.978;8.742;2023-08-20T06:23:55;12.43;;;11.33;;
4595;SDS011;2310;49.978;8.742;2023-08-20T06:27:56;12.80;;;11.50;;
4595;SDS011;2310;49.978;8.742;2023-08-20T06:31:58;12.30;;;9.87;;
4595;SDS011;2310;49.978;8.742;2023-08-20T06:35:59;13.00;;;11.53;;
4595;SDS011;2310;49.978;8.742;2023-08-20T06:40:00;13.60;;;11.80;;
4595;SDS011;2310;49.978;8.742;2023-08-20T06:44:02;14.77;;;12.80;;
4595;SDS011;2310;49.978;8.742;2023-08-20T06:48:04;12.30;;;11.23;;
4595;SDS011;2310;49.978;8.742;2023-08-20T06:52:06;11.77;;;10.63;;
4595;SDS011;2310;49.978;8.742;2023-08-20T06:56:08;13.80;;;12.27;;
4595;SDS011;2310;49.978;8.742;2023-08-20T07:00:10;12.93;;;11.53;;
4595;SDS011;2310;49.978;8.742;2023-08-20T07:04:11;12.83;;;11.63;;
4595;SDS011;2310;49.978;8.742;2023-08-20T07:08:13;12.90;;;11.70;;
4595;SDS011;2310;49.978;8.742;2023-08-20T07:12:15;12.37;;;11.27;;
4595;SDS011;2310;49.978;8.742;2023-08-20T07:16:16;12.87;;;11.63;;
4595;SDS011;2310;49.978;8.742;2023-08-20T07:20:17;13.17;;;11.83;;
4595;SDS011;2310;49.978;8.742;2023-08-20T07:24:19;13.33;;;12.03;;
4595;SDS011;2310;49.978;8.742;2023-08-20T07:28:22;12.37;;;10.60;;
4595;SDS011;2310;49.978;8.742;2023-08-20T07:32:31;12.57;;;11.27;;
4595;SDS011;2310;49.978;8.742;2023-08-20T07:36:32;13.23;;;11.90;;
4595;SDS011;2310;49.978;8.742;2023-08-20T07:40:34;12.93;;;11.83;;
4595;SDS011;2310;49.978;8.742;2023-08-20T07:44:36;12.07;;;10.83;;
4595;SDS011;2310;49.978;8.742;2023-08-20T07:48:37;12.10;;;11.03;;
4595;SDS011;2310;49.978;8.742;2023-08-20T07:52:39;12.93;;;11.63;;
4595;SDS011;2310;49.978;8.742;2023-08-20T07:56:41;13.07;;;11.80;;
4595;SDS011;2310;49.978;8.742;2023-08-20T08:00:42;12.70;;;11.43;;
4595;SDS011;2310;49.978;8.742;2023-08-20T08:04:44;11.23;;;10.33;;
4595;SDS011;2310;49.978;8.742;2023-08-20T08:08:47;13.20;;;10.77;;
4595;SDS011;2310;49.978;8.742;2023-08-20T08:12:48;12.60;;;11.50;;
4595;SDS011;2310;49.978;8.742;2023-08-20T08:16:50;11.93;;;10.93;;
4595;SDS011;2310;49.978;8.742;2023-08-20T08:20:51;11.67;;;10.40;;
4595;SDS011;2310;49.978;8.742;2023-08-20T08:24:53;12.33;;;10.80;;
4595;SDS011;2310;49.978;8.742;2023-08-20T08:28:54;11.33;;;10.23;;
4595;SDS011;2310;49.978;8.742;2023-08-20T08:32:55;12.20;;;11.20;;
4595;SDS011;2310;49.978;8.742;2023-08-20T08:36:57;12.07;;;10.87;;
4595;SDS011;2310;49.978;8.742;2023-08-20T08:40:58;12.00;;;11.00;;
4595;SDS011;2310;49.978;8.742;2023-08-20T08:45:02;11.47;;;10.33;;
4595;SDS011;2310;49.978;8.742;2023-08-20T08:49:04;11.47;;;10.47;;
4595;SDS011;2310;49.978;8.742;2023-08-20T08:53:06;11.57;;;10.40;;
4595;SDS011;2310;49.978;8.742;2023-08-20T08:57:09;13.17;;;10.50;;
4595;SDS011;2310;49.978;8.742;2023-08-20T09:01:10;11.83;;;10.83;;
4595;SDS011;2310;49.978;8.742;2023-08-20T09:05:14;10.00;;;9.07;;
4595;SDS011;2310;49.978;8.742;2023-08-20T09:09:19;11.07;;;10.07;;
4595;SDS011;2310;49.978;8.742;2023-08-20T09:13:24;11.33;;;10.27;;
4595;SDS011;2310;49.978;8.742;2023-08-20T09:17:28;10.90;;;9.87;;
4595;SDS011;2310;49.978;8.742;2023-08-20T09:21:30;10.00;;;9.10;;
4595;SDS011;2310;49.978;8.742;2023-08-20T09:25:32;11.40;;;10.40;;
4595;SDS011;2310;49.978;8.742;2023-08-20T09:29:48;11.10;;;10.10;;
4595;SDS011;2310;49.978;8.742;2023-08-20T09:33:52;9.37;;;8.47;;
4595;SDS011;2310;49.978;8.742;2023-08-20T09:38:01;11.70;;;10.40;;
4595;SDS011;2310;49.978;8.742;2023-08-20T09:42:04;11.63;;;10.60;;
4595;SDS011;2310;49.978;8.742;2023-08-20T09:46:07;9.90;;;9.10;;
4595;SDS011;2310;49.978;8.742;2023-08-20T09:50:12;10.90;;;10.00;;
4595;SDS011;2310;49.978;8.742;2023-08-20T09:54:21;14.27;;;10.70;;
4595;SDS011;2310;49.978;8.742;2023-08-20T09:58:29;10.83;;;9.73;;
4595;SDS011;2310;49.978;8.742;2023-08-20T10:02:32;10.20;;;9.33;;
4595;SDS011;2310;49.978;8.742;2023-08-20T10:06:35;10.50;;;9.60;;
4595;SDS011;2310;49.978;8.742;2023-08-20T10:10:37;10.77;;;9.77;;
4595;SDS011;2310;49.978;8.742;2023-08-20T10:14:39;9.10;;;8.30;;
4595;SDS011;2310;49.978;8.742;2023-08-20T10:18:41;9.33;;;8.53;;
4595;SDS011;2310;49.978;8.742;2023-08-20T10:22:44;9.03;;;8.23;;
4595;SDS011;2310;49.978;8.742;2023-08-20T10:26:46;8.37;;;7.67;;
4595;SDS011;2310;49.978;8.742;2023-08-20T10:35:09;7.63;;;6.83;;
4595;SDS011;2310;49.978;8.742;2023-08-20T10:39:19;7.40;;;6.70;;
4595;SDS011;2310;49.978;8.742;2023-08-20T10:43:28;8.07;;;7.37;;
4595;SDS011;2310;49.978;8.742;2023-08-20T10:47:47;8.07;;;7.37;;
4595;SDS011;2310;49.978;8.742;2023-08-20T10:51:49;8.33;;;7.53;;
4595;SDS011;2310;49.978;8.742;2023-08-20T10:55:51;9.13;;;8.33;;
4595;SDS011;2310;49.978;8.742;2023-08-20T10:59:56;7.70;;;7.00;;
4595;SDS011;2310;49.978;8.742;2023-08-20T11:04:00;8.70;;;7.97;;
4595;SDS011;2310;49.978;8.742;2023-08-20T11:08:03;9.43;;;8.63;;
4595;SDS011;2310;49.978;8.742;2023-08-20T11:12:07;8.63;;;7.80;;
4595;SDS011;2310;49.978;8.742;2023-08-20T11:16:08;9.07;;;8.17;;
4595;SDS011;2310;49.978;8.742;2023-08-20T11:20:10;9.03;;;8.23;;
4595;SDS011;2310;49.978;8.742;2023-08-20T11:24:15;9.43;;;7.63;;
4595;SDS011;2310;49.978;8.742;2023-08-20T11:28:17;8.57;;;7.20;;
4595;SDS011;2310;49.978;8.742;2023-08-20T11:32:19;8.97;;;8.17;;
4595;SDS011;2310;49.978;8.742;2023-08-20T11:36:20;7.60;;;6.90;;
4595;SDS011;2310;49.978;8.742;2023-08-20T11:40:22;8.47;;;7.67;;
4595;SDS011;2310;49.978;8.742;2023-08-20T11:44:24;8.80;;;8.00;;
4595;SDS011;2310;49.978;8.742;2023-08-20T11:48:27;9.37;;;7.70;;
4595;SDS011;2310;49.978;8.742;2023-08-20T11:52:30;8.40;;;7.47;;
4595;SDS011;2310;49.978;8.742;2023-08-20T11:56:32;8.47;;;7.67;;
4595;SDS011;2310;49.978;8.742;2023-08-20T12:00:35;8.00;;;7.20;;
4595;SDS011;2310;49.978;8.742;2023-08-20T12:04:36;7.60;;;6.90;;
4595;SDS011;2310;49.978;8.742;2023-08-20T12:08:38;8.63;;;7.93;;
4595;SDS011;2310;49.978;8.742;2023-08-20T12:12:39;8.73;;;7.93;;
4595;SDS011;2310;49.978;8.742;2023-08-20T12:16:41;8.33;;;7.63;;
4595;SDS011;2310;49.978;8.742;2023-08-20T12:20:42;7.67;;;6.87;;
4595;SDS011;2310;49.978;8.742;2023-08-20T12:24:43;8.73;;;7.70;;
4595;SDS011;2310;49.978;8.742;2023-08-20T12:28:45;8.50;;;7.80;;
4595;SDS011;2310;49.978;8.742;2023-08-20T12:32:46;8.63;;;7.83;;
4595;SDS011;2310;49.978;8.742;2023-08-20T12:36:48;7.20;;;6.50;;
4595;SDS011;2310;49.978;8.742;2023-08-20T12:40:50;8.03;;;7.33;;
4595;SDS011;2310;49.978;8.742;2023-08-20T12:44:51;7.90;;;7.20;;
4595;SDS011;2310;49.978;8.742;2023-08-20T12:48:52;8.80;;;8.00;;
4595;SDS011;2310;49.978;8.742;2023-08-20T12:52:54;8.67;;;7.87;;
4595;SDS011;2310;49.978;8.742;2023-08-20T12:56:55;8.00;;;7.30;;
4595;SDS011;2310;49.978;8.742;2023-08-20T13:00:56;9.23;;;8.20;;
4595;SDS011;2310;49.978;8.742;2023-08-20T13:04:58;9.23;;;7.77;;
4595;SDS011;2310;49.978;8.742;2023-08-20T13:08:59;8.60;;;7.80;;
4595;SDS011;2310;49.978;8.742;2023-08-20T13:13:01;7.53;;;5.93;;
4595;SDS011;2310;49.978;8.742;2023-08-20T13:17:03;6.87;;;6.17;;
4595;SDS011;2310;49.978;8.742;2023-08-20T13:21:05;8.27;;;6.40;;
4595;SDS011;2310;49.978;8.742;2023-08-20T13:25:06;7.93;;;6.77;;
4595;SDS011;2310;49.978;8.742;2023-08-20T13:29:08;7.10;;;6.40;;
4595;SDS011;2310;49.978;8.742;2023-08-20T13:33:12;7.10;;;6.40;;
4595;SDS011;2310;49.978;8.742;2023-08-20T13:37:16;8.03;;;7.23;;
4595;SDS011;2310;49.978;8.742;2023-08-20T13:41:18;7.67;;;6.87;;
4595;SDS011;2310;49.978;8.742;2023-08-20T13:45:19;8.30;;;6.73;;
4595;SDS011;2310;49.978;8.742;2023-08-20T13:49:21;7.60;;;6.83;;
4595;SDS011;2310;49.978;8.742;2023-08-20T13:53:22;7.87;;;7.07;;
4595;SDS011;2310;49.978;8.742;2023-08-20T13:57:24;9.07;;;7.50;;
4595;SDS011;2310;49.978;8.742;2023-08-20T14:01:25;8.30;;;7.43;;
4595;SDS011;2310;49.978;8.742;2023-08-20T14:05:27;8.10;;;7.30;;
4595;SDS011;2310;49.978;8.742;2023-08-20T14:09:30;7.83;;;7.03;;
4595;SDS011;2310;49.978;8.742;2023-08-20T14:13:31;9.77;;;7.70;;
4595;SDS011;2310;49.978;8.742;2023-08-20T14:17:33;7.07;;;6.37;;
4595;SDS011;2310;49.978;8.742;2023-08-20T14:21:34;8.50;;;7.70;;
4595;SDS011;2310;49.978;8.742;2023-08-20T14:25:36;11.57;;;7.10;;
4595;SDS011;2310;49.978;8.742;2023-08-20T14:29:37;7.80;;;6.97;;
4595;SDS011;2310;49.978;8.742;2023-08-20T14:33:39;8.57;;;7.77;;
4595;SDS011;2310;49.978;8.742;2023-08-20T14:37:40;8.80;;;7.67;;
4595;SDS011;2310;49.978;8.742;2023-08-20T14:41:42;8.00;;;7.20;;
4595;SDS011;2310;49.978;8.742;2023-08-20T14:45:44;7.50;;;6.63;;
4595;SDS011;2310;49.978;8.742;2023-08-20T14:49:46;6.73;;;6.13;;
4595;SDS011;2310;49.978;8.742;2023-08-20T14:53:47;7.33;;;6.60;;
4595;SDS011;2310;49.978;8.742;2023-08-20T14:57:49;7.47;;;6.67;;
4595;SDS011;2310;49.978;8.742;2023-08-20T15:01:52;9.17;;;7.50;;
4595;SDS011;2310;49.978;8.742;2023-08-20T15:05:53;7.47;;;6.77;;
4595;SDS011;2310;49.978;8.742;2023-08-20T15:09:54;8.53;;;7.63;;
4595;SDS011;2310;49.978;8.742;2023-08-20T15:13:56;8.90;;;7.03;;
4595;SDS011;2310;49.978;8.742;2023-08-20T15:17:57;7.40;;;6.70;;
4595;SDS011;2310;49.978;8.742;2023-08-20T15:21:59;8.03;;;7.23;;
4595;SDS011;2310;49.978;8.742;2023-08-20T15:26:01;9.20;;;6.67;;
4595;SDS011;2310;49.978;8.742;2023-08-20T15:30:03;7.90;;;7.10;;
4595;SDS011;2310;49.978;8.742;2023-08-20T15:34:05;7.93;;;7.23;;
4595;SDS011;2310;49.978;8.742;2023-08-20T15:38:06;7.70;;;6.90;;
4595;SDS011;2310;49.978;8.742;2023-08-20T15:42:08;7.60;;;6.70;;
4595;SDS011;2310;49.978;8.742;2023-08-20T15:46:09;7.57;;;6.70;;
4595;SDS011;2310;49.978;8.742;2023-08-20T15:50:10;8.00;;;6.40;;
4595;SDS011;2310;49.978;8.742;2023-08-20T15:54:12;7.70;;;6.70;;
4595;SDS011;2310;49.978;8.742;2023-08-20T15:58:13;8.30;;;6.50;;
4595;SDS011;2310;49.978;8.742;2023-08-20T16:02:14;7.00;;;6.40;;
4595;SDS011;2310;49.978;8.742;2023-08-20T16:06:16;8.07;;;7.27;;
4595;SDS011;2310;49.978;8.742;2023-08-20T16:10:17;11.03;;;6.57;;
4595;SDS011;2310;49.978;8.742;2023-08-20T16:14:19;10.80;;;9.70;;
4595;SDS011;2310;49.978;8.742;2023-08-20T16:18:21;11.37;;;10.37;;
4595;SDS011;2310;49.978;8.742;2023-08-20T16:22:23;8.90;;;7.27;;
4595;SDS011;2310;49.978;8.742;2023-08-20T16:26:24;8.50;;;7.00;;
4595;SDS011;2310;49.978;8.742;2023-08-20T16:30:25;7.00;;;6.23;;
4595;SDS011;2310;49.978;8.742;2023-08-20T16:34:27;7.60;;;6.90;;
4595;SDS011;2310;49.978;8.742;2023-08-20T16:38:29;9.83;;;7.70;;
4595;SDS011;2310;49.978;8.742;2023-08-20T16:42:31;7.40;;;6.70;;
4595;SDS011;2310;49.978;8.742;2023-08-20T16:46:33;7.03;;;6.33;;
4595;SDS011;2310;49.978;8.742;2023-08-20T16:50:35;8.03;;;6.50;;
4595;SDS011;2310;49.978;8.742;2023-08-20T16:54:38;8.27;;;7.30;;
4595;SDS011;2310;49.978;8.742;2023-08-20T16:58:40;8.43;;;6.43;;
4595;SDS011;2310;49.978;8.742;2023-08-20T17:02:41;7.93;;;6.13;;
4595;SDS011;2310;49.978;8.742;2023-08-20T17:06:43;7.57;;;6.80;;
4595;SDS011;2310;49.978;8.742;2023-08-20T17:10:45;7.00;;;6.30;;
4595;SDS011;2310;49.978;8.742;2023-08-20T17:14:47;9.13;;;6.50;;
4595;SDS011;2310;49.978;8.742;2023-08-20T17:18:49;8.57;;;6.70;;
4595;SDS011;2310;49.978;8.742;2023-08-20T17:22:53;7.87;;;7.10;;
4595;SDS011;2310;49.978;8.742;2023-08-20T17:26:54;9.60;;;7.10;;
4595;SDS011;2310;49.978;8.742;2023-08-20T17:30:55;8.33;;;6.53;;
4595;SDS011;2310;49.978;8.742;2023-08-20T17:34:57;8.30;;;7.17;;
4595;SDS011;2310;49.978;8.742;2023-08-20T17:38:58;7.57;;;6.87;;
4595;SDS011;2310;49.978;8.742;2023-08-20T17:43:01;10.60;;;7.47;;
4595;SDS011;2310;49.978;8.742;2023-08-20T17:47:03;8.33;;;7.53;;
4595;SDS011;2310;49.978;8.742;2023-08-20T17:51:04;9.93;;;8.17;;
4595;SDS011;2310;49.978;8.742;2023-08-20T17:55:06;8.70;;;7.80;;
4595;SDS011;2310;49.978;8.742;2023-08-20T17:59:08;8.10;;;7.30;;
4595;SDS011;2310;49.978;8.742;2023-08-20T18:03:09;9.67;;;8.10;;
4595;SDS011;2310;49.978;8.742;2023-08-20T18:07:11;8.73;;;7.93;;
4595;SDS011;2310;49.978;8.742;2023-08-20T18:11:12;8.00;;;7.20;;
4595;SDS011;2310;49.978;8.742;2023-08-20T18:15:14;9.30;;;7.40;;
4595;SDS011;2310;49.978;8.742;2023-08-20T18:19:15;9.07;;;7.83;;
4595;SDS011;2310;49.978;8.742;2023-08-20T18:23:17;7.87;;;7.07;;
4595;SDS011;2310;49.978;8.742;2023-08-20T18:27:20;10.40;;;9.30;;
4595;SDS011;2310;49.978;8.742;2023-08-20T18:31:21;8.70;;;7.63;;
4595;SDS011;2310;49.978;8.742;2023-08-20T18:35:23;8.70;;;7.90;;
4595;SDS011;2310;49.978;8.742;2023-08-20T18:39:25;9.77;;;8.80;;
4595;SDS011;2310;49.978;8.742;2023-08-20T18:43:28;9.23;;;8.33;;
4595;SDS011;2310;49.978;8.742;2023-08-20T18:47:30;10.07;;;7.93;;
4595;SDS011;2310;49.978;8.742;2023-08-20T18:51:32;8.93;;;7.80;;
4595;SDS011;2310;49.978;8.742;2023-08-20T18:55:33;10.17;;;9.17;;
4595;SDS011;2310;49.978;8.742;2023-08-20T18:59:34;11.87;;;9.17;;
4595;SDS011;2310;49.978;8.742;2023-08-20T19:03:36;10.10;;;9.20;;
4595;SDS011;2310;49.978;8.742;2023-08-20T19:07:37;10.20;;;8.43;;
4595;SDS011;2310;49.978;8.742;2023-08-20T19:11:41;9.30;;;8.50;;
4595;SDS011;2310;49.978;8.742;2023-08-20T19:15:42;9.57;;;8.60;;
4595;SDS011;2310;49.978;8.742;2023-08-20T19:19:46;10.00;;;9.00;;
4595;SDS011;2310;49.978;8.742;2023-08-20T19:23:47;10.90;;;9.40;;
4595;SDS011;2310;49.978;8.742;2023-08-20T19:27:50;10.53;;;8.90;;
4595;SDS011;2310;49.978;8.742;2023-08-20T19:31:51;9.83;;;8.63;;
4595;SDS011;2310;49.978;8.742;2023-08-20T19:35:53;13.10;;;9.00;;
4595;SDS011;2310;49.978;8.742;2023-08-20T19:39:54;10.27;;;9.10;;
4595;SDS011;2310;49.978;8.742;2023-08-20T19:43:56;10.10;;;9.10;;
4595;SDS011;2310;49.978;8.742;2023-08-20T19:47:57;10.17;;;8.50;;
4595;SDS011;2310;49.978;8.742;2023-08-20T19:51:59;10.27;;;9.27;;
4595;SDS011;2310;49.978;8.742;2023-08-20T19:56:01;10.80;;;9.80;;
4595;SDS011;2310;49.978;8.742;2023-08-20T20:00:04;11.17;;;10.17;;
4595;SDS011;2310;49.978;8.742;2023-08-20T20:04:13;9.67;;;8.67;;
4595;SDS011;2310;49.978;8.742;2023-08-20T20:08:15;26.87;;;22.33;;
4595;SDS011;2310;49.978;8.742;2023-08-20T20:12:16;18.53;;;16.60;;
4595;SDS011;2310;49.978;8.742;2023-08-20T20:16:17;10.63;;;9.60;;
4595;SDS011;2310;49.978;8.742;2023-08-20T20:20:20;12.97;;;11.03;;
4595;SDS011;2310;49.978;8.742;2023-08-20T20:24:22;11.87;;;9.50;;
4595;SDS011;2310;49.978;8.742;2023-08-20T20:28:23;9.57;;;8.57;;
4595;SDS011;2310;49.978;8.742;2023-08-20T20:32:24;10.53;;;9.10;;
4595;SDS011;2310;49.978;8.742;2023-08-20T20:36:26;12.10;;;10.40;;
4595;SDS011;2310;49.978;8.742;2023-08-20T20:40:27;11.57;;;10.37;;
4595;SDS011;2310;49.978;8.742;2023-08-20T20:44:28;10.80;;;9.80;;
4595;SDS011;2310;49.978;8.742;2023-08-20T20:48:30;10.70;;;9.60;;
4595;SDS011;2310;49.978;8.742;2023-08-20T20:52:31;9.63;;;8.73;;
4595;SDS011;2310;49.978;8.742;2023-08-20T20:56:32;10.30;;;9.30;;
4595;SDS011;2310;49.978;8.742;2023-08-20T21:00:34;11.40;;;10.40;;
4595;SDS011;2310;49.978;8.742;2023-08-20T21:04:35;14.87;;;13.27;;
4595;SDS011;2310;49.978;8.742;2023-08-20T21:08:37;14.83;;;12.90;;
4595;SDS011;2310;49.978;8.742;2023-08-20T21:12:38;12.10;;;11.00;;
4595;SDS011;2310;49.978;8.742;2023-08-20T21:16:40;12.30;;;11.10;;
4595;SDS011;2310;49.978;8.742;2023-08-20T21:20:41;13.03;;;10.50;;
4595;SDS011;2310;49.978;8.742;2023-08-20T21:24:43;12.20;;;10.00;;
4595;SDS011;2310;49.978;8.742;2023-08-20T21:28:44;15.10;;;11.27;;
4595;SDS011;2310;49.978;8.742;2023-08-20T21:32:45;10.30;;;9.23;;
4595;SDS011;2310;49.978;8.742;2023-08-20T21:36:49;10.20;;;9.10;;
4595;SDS011;2310;49.978;8.742;2023-08-20T21:40:50;9.97;;;9.07;;
4595;SDS011;2310;49.978;8.742;2023-08-20T21:44:53;10.17;;;9.00;;
4595;SDS011;2310;49.978;8.742;2023-08-20T21:48:55;10.23;;;8.50;;
4595;SDS011;2310;49.978;8.742;2023-08-20T21:52:56;9.67;;;8.07;;
4595;SDS011;2310;49.978;8.742;2023-08-20T21:56:58;9.73;;;7.70;;
4595;SDS011;2310;49.978;8.742;2023-08-20T22:00:59;8.60;;;7.77;;
4595;SDS011;2310;49.978;8.742;2023-08-20T22:09:16;10.17;;;8.10;;
4595;SDS011;2310;49.978;8.742;2023-08-20T22:13:18;8.40;;;7.53;;
4595;SDS011;2310;49.978;8.742;2023-08-20T22:17:20;9.50;;;8.13;;
4595;SDS011;2310;49.978;8.742;2023-08-20T22:21:21;8.83;;;7.93;;
4595;SDS011;2310;49.978;8.742;2023-08-20T22:25:23;9.80;;;8.73;;
4595;SDS011;2310;49.978;8.742;2023-08-20T22:29:25;10.47;;;8.20;;
4595;SDS011;2310;49.978;8.742;2023-08-20T22:33:26;9.60;;;8.60;;
4595;SDS011;2310;49.978;8.742;2023-08-20T22:37:27;9.30;;;8.33;;
4595;SDS011;2310;49.978;8.742;2023-08-20T22:41:29;11.17;;;8.37;;
4595;SDS011;2310;49.978;8.742;2023-08-20T22:45:30;8.83;;;7.40;;
4595;SDS011;2310;49.978;8.742;2023-08-20T22:49:31;9.37;;;8.47;;
4595;SDS011;2310;49.978;8.742;2023-08-20T22:53:33;9.90;;;8.50;;
4595;SDS011;2310;49.978;8.742;2023-08-20T22:57:34;11.40;;;8.73;;
4595;SDS011;2310;49.978;8.742;2023-08-20T23:01:36;9.17;;;8.30;;
4595;SDS011;2310;49.978;8.742;2023-08-20T23:05:37;8.90;;;8.00;;
4595;SDS011;2310;49.978;8.742;2023-08-20T23:09:39;9.50;;;8.10;;
4595;SDS011;2310;49.978;8.742;2023-08-20T23:13:40;10.27;;;8.20;;
4595;SDS011;2310;49.978;8.742;2023-08-20T23:17:41;10.80;;;8.47;;
4595;SDS011;2310;49.978;8.742;2023-08-20T23:21:43;10.07;;;8.87;;
4595;SDS011;2310;49.978;8.742;2023-08-20T23:25:46;9.80;;;8.30;;
4595;SDS011;2310;49.978;8.742;2023-08-20T23:29:48;9.37;;;8.50;;
4595;SDS011;2310;49.978;8.742;2023-08-20T23:33:49;10.60;;;9.50;;
4595;SDS011;2310;49.978;8.742;2023-08-20T23:37:50;10.10;;;9.07;;
4595;SDS011;2310;49.978;8.742;2023-08-20T23:41:52;10.47;;;9.47;;
4595;SDS011;2310;49.978;8.742;2023-08-20T23:45:53;10.30;;;9.30;;
4595;SDS011;2310;49.978;8.742;2023-08-20T23:49:54;11.03;;;8.97;;
4595;SDS011;2310;49.978;8.742;2023-08-20T23:53:56;9.87;;;8.97;;
4595;SDS011;2310;49.978;8.742;2023-08-20T23:57:57;11.50;;;9.47;;
